Time;durP1;ratioP1;P1;durP2;ratioP2;P2;SDS_P1;SDS_P2;PMS_P1;PMS_P2;Temp;Humidity;BMP_temperature;BMP_pressure;BME280_temperature;BME280_humidity;BME280_pressure;Samples;Min_cycle;Max_cycle;Signal;HPM_P1;HPM_P2
2023/11/23 00:01:11;;;;;;;;;;;;;;;25.46;44.70;95048.00;5021444;28;7182;-56
2023/11/23 00:03:50;;;;;;;;;;;;;;;25.45;44.09;95052.03;5048960;28;8781;-56
2023/11/23 00:06:18;;;;;;;;;;;;;;;25.40;44.22;95054.19;5052224;28;7221;-56
2023/11/23 00:08:52;;;;;;;;;;;;;;;25.43;43.78;95047.75;5066645;28;7174;-56
2023/11/23 00:11:19;;;;;;;;;;;;;;;25.45;44.66;95047.25;5043745;28;7272;-56
2023/11/23 00:13:46;;;;;;;;;;;;;;;25.45;43.60;95038.25;5066629;28;9185;-56
2023/11/23 00:16:34;;;;;;;;;;;;;;;25.45;44.48;95036.22;5066936;28;7081;-56
2023/11/23 00:19:00;;;;;;;;;;;;;;;25.43;44.05;95030.47;5042784;28;7044;-56
2023/11/23 00:21:27;;;;;;;;;;;;;;;25.44;43.66;95031.97;5048314;28;7855;-56
2023/11/23 00:23:54;;;;;;;;;;;;;;;25.46;44.45;95034.22;5048474;28;7017;-64
2023/11/23 00:26:21;;;;;;;;;;;;;;;25.45;44.16;95038.97;5054175;28;7586;-64
2023/11/23 00:28:49;;;;;;;;;;;;;;;25.46;44.12;95037.75;5057900;28;7439;-64
2023/11/23 00:31:23;;;;;;;;;;;;;;;25.44;44.44;95054.00;5043463;28;7744;-64
2023/11/23 00:33:56;;;;;;;;;;;;;;;25.41;43.93;95049.44;5069814;28;7252;-64
2023/11/23 00:36:25;;;;;;;;;;;;;;;25.39;43.73;95047.19;5059097;28;7323;-64
2023/11/23 00:38:52;;;;;;;;;;;;;;;25.41;44.24;95049.44;5077237;28;7387;-64
2023/11/23 00:41:24;;;;;;;;;;;;;;;25.41;44.19;95049.44;5067179;28;7137;-64
2023/11/23 00:43:52;;;;;;;;;;;;;;;25.41;43.57;95046.69;5064072;28;7128;-64
2023/11/23 00:46:27;;;;;;;;;;;;;;;25.45;43.83;95052.03;5054820;28;7237;-64
2023/11/23 00:48:55;;;;;;;;;;;;;;;25.44;43.83;95048.50;5072582;28;7256;-64
2023/11/23 00:51:23;;;;;;;;;;;;;;;25.45;44.31;95038.25;5050231;28;8777;-64
2023/11/23 00:53:52;;;;;;;;;;;;;;;25.43;43.70;95030.47;5053230;28;9022;-64
2023/11/23 00:56:32;;;;;;;;;;;;;;;25.40;43.34;95025.94;5046069;28;7265;-64
2023/11/23 00:59:11;;;;;;;;;;;;;;;25.41;44.10;95025.44;5055728;28;6994;-64
2023/11/23 01:01:41;;;;;;;;;;;;;;;25.40;43.55;95031.44;5053631;28;8767;-64
2023/11/23 01:04:10;;;;;;;;;;;;;;;25.38;43.99;95028.44;5063894;28;7204;-64
2023/11/23 01:06:46;;;;;;;;;;;;;;;25.38;43.60;95031.91;5044966;28;7430;-64
2023/11/23 01:09:26;;;;;;;;;;;;;;;25.39;43.26;95040.94;5044227;28;7796;-64
2023/11/23 01:11:52;;;;;;;;;;;;;;;25.39;43.97;95040.94;5061140;28;8154;-63
2023/11/23 01:14:43;;;;;;;;;;;;;;;25.40;43.47;95045.94;5067078;28;7216;-63
2023/11/23 01:17:11;;;;;;;;;;;;;;;25.39;44.10;95052.72;5053671;28;7355;-64
2023/11/23 01:19:38;;;;;;;;;;;;;;;25.37;43.42;95044.19;5050742;28;7075;-63
2023/11/23 01:22:06;;;;;;;;;;;;;;;25.40;43.42;95056.94;5057968;28;8588;-64
2023/11/23 01:24:48;;;;;;;;;;;;;;;25.40;43.69;95056.22;5056945;28;7233;-64
2023/11/23 01:27:14;;;;;;;;;;;;;;;25.41;43.55;95060.47;5052064;28;7374;-64
2023/11/23 01:29:53;;;;;;;;;;;;;;;25.40;43.36;95064.47;5055075;28;7375;-64
2023/11/23 01:32:19;;;;;;;;;;;;;;;25.40;43.37;95065.22;5069302;28;8871;-63
2023/11/23 01:34:53;;;;;;;;;;;;;;;25.38;43.41;95067.72;5069224;28;7475;-64
2023/11/23 01:37:24;;;;;;;;;;;;;;;25.40;44.02;95067.97;5043914;28;7245;-64
2023/11/23 01:39:56;;;;;;;;;;;;;;;25.39;43.13;95076.72;5049681;28;6969;-64
2023/11/23 01:42:32;;;;;;;;;;;;;;;25.38;43.92;95080.75;5061834;28;7288;-64
2023/11/23 01:44:58;;;;;;;;;;;;;;;25.41;43.07;95093.50;5049743;28;7237;-64
2023/11/23 01:47:40;;;;;;;;;;;;;;;25.40;43.77;95092.03;5052244;28;9783;-64
2023/11/23 01:50:17;;;;;;;;;;;;;;;25.40;43.02;95094.78;5053674;28;7116;-64
2023/11/23 01:53:04;;;;;;;;;;;;;;;25.38;44.00;95106.25;5053235;28;7005;-64
2023/11/23 01:55:40;;;;;;;;;;;;;;;25.40;43.55;95108.53;5046243;28;7234;-64
2023/11/23 01:58:10;;;;;;;;;;;;;;;25.39;43.07;95105.03;5055522;28;7527;-64
2023/11/23 02:00:36;;;;;;;;;;;;;;;25.40;42.99;95116.81;5053321;28;7187;-63
2023/11/23 02:03:24;;;;;;;;;;;;;;;25.40;43.70;95119.56;5053130;28;8821;-64
2023/11/23 02:06:03;;;;;;;;;;;;;;;25.39;43.63;95124.31;5061786;28;7591;-64
2023/11/23 02:08:41;;;;;;;;;;;;;;;25.38;43.52;95122.06;5060241;28;7178;-64
2023/11/23 02:11:18;;;;;;;;;;;;;;;25.36;43.24;95111.50;5066083;28;8843;-64
2023/11/23 02:14:06;;;;;;;;;;;;;;;25.38;42.75;95116.53;5057091;28;8874;-64
2023/11/23 02:16:50;;;;;;;;;;;;;;;25.35;43.15;95112.78;5060273;28;7174;-64
2023/11/23 02:19:43;;;;;;;;;;;;;;;25.38;42.99;95119.31;5053849;28;9064;-64
2023/11/23 02:22:42;;;;;;;;;;;;;;;25.38;43.74;95114.53;5065383;28;8647;-64
2023/11/23 02:25:19;;;;;;;;;;;;;;;25.38;43.17;95111.03;5011590;28;7304;-63
2023/11/23 02:27:58;;;;;;;;;;;;;;;25.36;43.55;95108.75;5002330;28;7246;-64
2023/11/23 02:30:24;;;;;;;;;;;;;;;25.38;43.19;95111.78;4993207;28;7165;-64
2023/11/23 02:33:01;;;;;;;;;;;;;;;25.38;42.66;95100.03;5006534;28;7037;-63
2023/11/23 02:35:28;;;;;;;;;;;;;;;25.37;43.47;95102.03;4998737;28;7248;-64
2023/11/23 02:37:54;;;;;;;;;;;;;;;25.38;43.52;95091.75;5002107;28;9357;-64
2023/11/23 02:40:20;;;;;;;;;;;;;;;25.32;42.94;95090.97;5005380;28;7151;-64
2023/11/23 02:42:46;;;;;;;;;;;;;;;25.34;43.30;95088.47;4988070;28;9165;-60
2023/11/23 02:45:23;;;;;;;;;;;;;;;25.38;43.32;95084.22;4993325;28;7037;-60
2023/11/23 02:47:49;;;;;;;;;;;;;;;25.37;42.92;95090.25;5008572;28;7084;-60
2023/11/23 02:50:33;;;;;;;;;;;;;;;25.35;43.34;95099.00;5006651;28;7082;-60
2023/11/23 02:53:17;;;;;;;;;;;;;;;25.38;42.60;95108.28;5012064;28;7437;-60
2023/11/23 02:55:52;;;;;;;;;;;;;;;25.38;43.07;95100.75;5009265;28;9176;-60
2023/11/23 02:58:31;;;;;;;;;;;;;;;25.36;43.36;95097.75;5001802;28;7234;-60
2023/11/23 03:00:58;;;;;;;;;;;;;;;25.35;42.87;95089.97;5022086;28;7108;-60
2023/11/23 03:03:34;;;;;;;;;;;;;;;25.34;43.45;95088.47;5046986;28;7340;-60
2023/11/23 03:06:03;;;;;;;;;;;;;;;25.35;42.62;95092.72;5062057;28;9088;-60
2023/11/23 03:09:03;;;;;;;;;;;;;;;25.34;43.22;95083.72;5066221;28;7315;-60
2023/11/23 03:11:32;;;;;;;;;;;;;;;25.35;43.21;95073.47;4972476;28;7432;-60
2023/11/23 03:14:14;;;;;;;;;;;;;;;25.33;42.82;95082.22;4952236;28;8742;-60
2023/11/23 03:16:50;;;;;;;;;;;;;;;25.32;43.02;95066.16;4968910;28;7282;-60
2023/11/23 03:19:43;;;;;;;;;;;;;;;25.34;42.88;95058.16;4956023;28;7015;-60
2023/11/23 03:22:19;;;;;;;;;;;;;;;25.35;42.99;95062.44;4956452;28;9081;-60
2023/11/23 03:24:49;;;;;;;;;;;;;;;25.36;43.58;95069.44;4964129;28;7395;-60
2023/11/23 03:27:26;;;;;;;;;;;;;;;25.37;42.90;95057.97;4971634;28;7183;-60
2023/11/23 03:30:00;;;;;;;;;;;;;;;25.40;43.12;95076.22;4971533;28;8674;-60
2023/11/23 03:32:30;;;;;;;;;;;;;;;25.39;43.04;95079.47;4984209;28;7222;-60
2023/11/23 03:35:14;;;;;;;;;;;;;;;25.38;43.22;95084.22;4968506;28;7279;-60
2023/11/23 03:37:50;;;;;;;;;;;;;;;25.35;43.34;95087.22;4955250;28;7240;-60
2023/11/23 03:40:47;;;;;;;;;;;;;;;25.38;42.85;95086.97;4967292;28;6983;-60
2023/11/23 03:43:32;;;;;;;;;;;;;;;25.42;43.45;95095.06;4915534;29;7278;-60
2023/11/23 03:46:09;;;;;;;;;;;;;;;25.37;43.25;95095.75;4914821;28;8989;-60
2023/11/23 03:48:35;;;;;;;;;;;;;;;25.34;43.21;95111.25;5011540;28;9114;-60
2023/11/23 03:51:11;;;;;;;;;;;;;;;25.32;43.72;95121.25;5008932;28;7054;-60
2023/11/23 03:54:12;;;;;;;;;;;;;;;25.30;42.68;95110.72;4977568;28;7476;-60
2023/11/23 03:56:58;;;;;;;;;;;;;;;25.32;43.53;95111.00;5004090;28;7331;-61
2023/11/23 03:59:50;;;;;;;;;;;;;;;25.33;42.55;95109.00;5008473;28;7247;-60
2023/11/23 04:02:18;;;;;;;;;;;;;;;25.33;42.80;95098.75;5002291;28;8853;-60
2023/11/23 04:04:44;;;;;;;;;;;;;;;25.33;43.25;95097.97;5007886;28;7543;-60
2023/11/23 04:07:23;;;;;;;;;;;;;;;25.34;42.98;95085.72;5001756;28;9065;-60
2023/11/23 04:09:52;;;;;;;;;;;;;;;25.34;43.05;95091.22;5014744;28;7975;-60
2023/11/23 04:13:01;;;;;;;;;;;;;;;25.34;42.46;95088.47;4998559;28;6994;-60
2023/11/23 04:15:28;;;;;;;;;;;;;;;25.31;43.35;95081.97;4991414;28;9077;-60
2023/11/23 04:18:26;;;;;;;;;;;;;;;25.33;42.58;95089.72;5013988;28;7491;-60
2023/11/23 04:21:22;;;;;;;;;;;;;;;25.34;43.30;95091.22;5041027;28;7243;-60
2023/11/23 04:24:07;;;;;;;;;;;;;;;25.32;43.19;95082.69;4998495;28;7201;-60
2023/11/23 04:26:57;;;;;;;;;;;;;;;25.34;43.38;95078.22;4994293;28;8979;-60
2023/11/23 04:29:34;;;;;;;;;;;;;;;25.32;43.31;95074.44;4996766;28;7065;-60
2023/11/23 04:32:13;;;;;;;;;;;;;;;25.32;42.26;95068.94;4996908;28;8749;-60
2023/11/23 04:34:42;;;;;;;;;;;;;;;25.33;42.86;95078.72;4992784;28;9069;-60
2023/11/23 04:37:48;;;;;;;;;;;;;;;25.33;43.05;95081.47;4997900;28;7068;-60
2023/11/23 04:40:24;;;;;;;;;;;;;;;25.33;42.38;95081.47;4997687;28;7522;-60
2023/11/23 04:43:19;;;;;;;;;;;;;;;25.32;42.26;95088.97;5014343;28;7691;-60
2023/11/23 04:45:46;;;;;;;;;;;;;;;25.32;43.18;95086.22;4974299;28;9202;-60
2023/11/23 04:51:56;;;;;;;;;;;;;;;25.33;42.96;95084.97;4957228;28;7041;-60
2023/11/23 04:54:58;;;;;;;;;;;;;;;25.33;43.12;95090.47;4974785;28;7013;-60
2023/11/23 04:57:53;;;;;;;;;;;;;;;25.33;42.24;95097.97;4883035;29;9173;-60
2023/11/23 05:00:24;;;;;;;;;;;;;;;25.31;42.55;95087.47;4859559;29;7049;-60
2023/11/23 05:03:10;;;;;;;;;;;;;;;25.32;42.58;95091.72;4899221;29;9140;-64
2023/11/23 05:06:06;;;;;;;;;;;;;;;25.34;42.18;95085.72;4896923;29;7100;-64
2023/11/23 05:08:43;;;;;;;;;;;;;;;25.30;42.17;95083.19;4890661;29;7928;-63
2023/11/23 05:11:40;;;;;;;;;;;;;;;25.32;43.15;95091.72;4898129;29;7328;-63
2023/11/23 05:14:20;;;;;;;;;;;;;;;25.30;42.65;95085.19;4824684;29;8975;-64
2023/11/23 05:16:49;;;;;;;;;;;;;;;25.32;43.18;95074.44;4819492;29;8908;-63
2023/11/23 05:19:29;;;;;;;;;;;;;;;25.30;42.12;95087.94;4823492;29;7420;-63
2023/11/23 05:21:56;;;;;;;;;;;;;;;25.29;43.00;95087.19;4815583;29;7252;-64
2023/11/23 05:24:24;;;;;;;;;;;;;;;25.30;42.66;95098.94;4819913;29;7240;-63
2023/11/23 05:26:50;;;;;;;;;;;;;;;25.31;42.95;95100.47;4842449;29;8767;-63
2023/11/23 05:29:38;;;;;;;;;;;;;;;25.29;42.24;95098.19;4828326;29;8896;-63
2023/11/23 05:32:32;;;;;;;;;;;;;;;25.32;42.43;95101.97;4898675;29;7009;-64
2023/11/23 05:35:08;;;;;;;;;;;;;;;25.35;41.87;95118.28;4915236;29;7194;-64
2023/11/23 05:37:44;;;;;;;;;;;;;;;25.37;41.96;95126.03;4929843;28;7370;-64
2023/11/23 05:40:23;;;;;;;;;;;;;;;25.40;42.16;95128.56;4948584;28;8691;-64
2023/11/23 05:43:02;;;;;;;;;;;;;;;25.41;42.44;95126.56;4943534;28;8762;-64
2023/11/23 05:45:43;;;;;;;;;;;;;;;25.36;42.75;95119.00;4949893;28;9092;-64
2023/11/23 05:48:09;;;;;;;;;;;;;;;25.37;42.06;95117.78;4952816;28;7247;-64
2023/11/23 05:50:40;;;;;;;;;;;;;;;25.38;42.62;95119.31;4998664;28;7432;-64
2023/11/23 05:53:20;;;;;;;;;;;;;;;25.41;42.10;95118.31;5066423;28;7168;-64
2023/11/23 05:55:51;;;;;;;;;;;;;;;25.46;42.72;95108.59;5069842;28;7260;-64
2023/11/23 05:58:38;;;;;;;;;;;;;;;25.46;42.46;95103.84;5054268;28;8758;-64
2023/11/23 06:01:21;;;;;;;;;;;;;;;25.49;42.42;95105.59;5059750;28;7235;-64
2023/11/23 06:04:13;;;;;;;;;;;;;;;25.52;42.52;95112.88;5054744;28;7326;-64
2023/11/23 06:07:10;;;;;;;;;;;;;;;25.55;42.00;95113.91;5012383;28;7096;-64
2023/11/23 06:09:37;;;;;;;;;;;;;;;25.55;42.25;95113.91;5015575;28;8855;-63
2023/11/23 06:12:05;;;;;;;;;;;;;;;25.53;42.13;95106.16;5016316;28;6985;-62
2023/11/23 06:14:39;;;;;;;;;;;;;;;25.52;41.76;95109.38;4994466;28;9084;-62
2023/11/23 06:17:16;;;;;;;;;;;;;;;25.58;42.23;95119.16;4995821;28;7424;-62
2023/11/23 06:20:31;;;;;;;;;;;;;;;25.58;42.29;95110.91;5011871;28;9166;-62
2023/11/23 06:23:11;;;;;;;;;;;;;;;25.60;42.23;95115.94;5002347;28;7330;-62
2023/11/23 06:25:49;;;;;;;;;;;;;;;25.57;41.70;95120.44;5011879;28;9090;-62
2023/11/23 06:28:25;;;;;;;;;;;;;;;25.60;41.90;95115.94;4996793;28;9173;-62
2023/11/23 06:30:53;;;;;;;;;;;;;;;25.63;42.30;95126.72;4995543;28;7191;-62
2023/11/23 06:33:33;;;;;;;;;;;;;;;25.66;41.37;95131.25;4994326;28;8776;-62
2023/11/23 06:35:59;;;;;;;;;;;;;;;25.66;41.90;95130.50;4990981;28;9032;-62
2023/11/23 06:38:41;;;;;;;;;;;;;;;25.65;42.07;95135.25;4981360;28;8779;-62
2023/11/23 06:41:46;;;;;;;;;;;;;;;25.66;42.25;95134.00;5007839;28;7245;-62
2023/11/23 06:44:41;;;;;;;;;;;;;;;25.66;41.34;95131.25;4954267;28;7494;-62
2023/11/23 06:47:20;;;;;;;;;;;;;;;25.67;41.70;95126.47;4899012;29;7246;-62
2023/11/23 06:49:48;;;;;;;;;;;;;;;25.63;41.34;95128.72;4899114;29;9508;-62
2023/11/23 06:52:31;;;;;;;;;;;;;;;25.62;41.89;95130.69;4897650;29;7210;-62
2023/11/23 06:54:57;;;;;;;;;;;;;;;25.65;41.21;95131.72;4895105;29;7445;-62
2023/11/23 06:57:31;;;;;;;;;;;;;;;25.61;41.04;95117.44;4898558;29;7249;-62
2023/11/23 07:00:28;;;;;;;;;;;;;;;25.58;41.53;95124.69;4896633;29;9261;-62
2023/11/23 07:03:27;;;;;;;;;;;;;;;25.60;41.56;95113.91;4824487;29;7257;-62
2023/11/23 07:06:13;;;;;;;;;;;;;;;25.60;41.92;95124.94;4800561;29;7099;-63
2023/11/23 07:08:57;;;;;;;;;;;;;;;25.61;41.08;95134.72;4804865;29;7238;-62
2023/11/23 07:11:38;;;;;;;;;;;;;;;25.58;41.91;95134.97;4799881;29;9083;-62
2023/11/23 07:14:42;;;;;;;;;;;;;;;25.58;42.18;95143.22;4787365;29;8798;-62
2023/11/23 07:17:17;;;;;;;;;;;;;;;25.59;41.66;95147.47;4804533;29;7321;-63
2023/11/23 07:19:54;;;;;;;;;;;;;;;25.55;41.83;95144.97;4856570;29;6997;-63
2023/11/23 07:22:35;;;;;;;;;;;;;;;25.60;41.85;95149.00;4863329;29;7265;-53
2023/11/23 07:25:49;;;;;;;;;;;;;;;25.53;42.41;95150.22;4920559;29;8990;-55
2023/11/23 07:28:16;;;;;;;;;;;;;;;25.54;41.87;95150.94;4876357;29;7106;-54
2023/11/23 07:31:16;;;;;;;;;;;;;;;25.54;42.16;95140.69;4880684;29;7534;-55
2023/11/23 07:33:43;;;;;;;;;;;;;;;25.51;42.67;95141.69;4832854;29;9096;-53
2023/11/23 07:36:26;;;;;;;;;;;;;;;25.55;42.47;95147.72;4843073;29;9546;-54
2023/11/23 07:39:02;;;;;;;;;;;;;;;25.55;42.62;95141.44;4837315;29;8770;-55
2023/11/23 07:41:31;;;;;;;;;;;;;;;25.59;41.63;95155.75;4871401;29;8787;-53
2023/11/23 07:44:30;;;;;;;;;;;;;;;25.60;41.79;95157.25;4897430;29;7185;-54
2023/11/23 07:47:08;;;;;;;;;;;;;;;25.57;42.05;95156.25;4898137;29;9135;-53
2023/11/23 07:49:35;;;;;;;;;;;;;;;25.60;41.98;95166.25;4885310;29;8335;-53
2023/11/23 07:52:02;;;;;;;;;;;;;;;25.58;42.09;95168.75;4885139;29;7229;-53
2023/11/23 07:54:56;;;;;;;;;;;;;;;25.61;41.89;95161.50;4886827;29;9135;-53
2023/11/23 07:57:27;;;;;;;;;;;;;;;25.60;41.39;95152.47;4859961;29;7066;-55
2023/11/23 07:59:57;;;;;;;;;;;;;;;25.59;41.24;95164.78;4856375;29;7154;-53
2023/11/23 08:02:39;;;;;;;;;;;;;;;25.54;41.00;95162.72;4840196;29;7183;-55
2023/11/23 08:05:36;;;;;;;;;;;;;;;25.48;41.36;95163.94;4864582;29;8727;-54
2023/11/23 08:08:04;;;;;;;;;;;;;;;25.45;41.66;95156.66;4831336;29;9166;-54
2023/11/23 08:10:31;;;;;;;;;;;;;;;25.43;41.34;95168.91;4859753;29;7262;-54
2023/11/23 08:13:02;;;;;;;;;;;;;;;25.43;42.04;95168.16;4848375;29;9109;-54
2023/11/23 08:15:43;;;;;;;;;;;;;;;25.44;41.78;95161.41;4850812;29;8800;-54
2023/11/23 08:18:48;;;;;;;;;;;;;;;25.46;42.12;95167.19;4846012;29;7262;-54
2023/11/23 08:21:22;;;;;;;;;;;;;;;25.45;41.98;95173.19;4844464;29;7520;-54
2023/11/23 08:23:49;;;;;;;;;;;;;;;25.42;42.15;95161.91;4883475;29;7094;-55
2023/11/23 08:26:16;;;;;;;;;;;;;;;25.45;41.26;95162.91;4868532;29;9187;-55
2023/11/23 08:28:42;;;;;;;;;;;;;;;25.43;41.52;95162.66;4874173;29;7308;-55
2023/11/23 08:31:08;;;;;;;;;;;;;;;25.42;42.10;95158.41;4874870;29;8157;-55
2023/11/23 08:33:37;;;;;;;;;;;;;;;25.45;41.58;95160.16;4899584;28;7558;-60
2023/11/23 08:36:03;;;;;;;;;;;;;;;25.47;41.64;95160.41;4951303;28;7164;-60
2023/11/23 08:38:44;;;;;;;;;;;;;;;25.49;41.72;95149.66;4936419;28;7291;-60
2023/11/23 08:41:11;;;;;;;;;;;;;;;25.51;41.13;95155.47;4937211;28;8775;-60
2023/11/23 08:43:51;;;;;;;;;;;;;;;25.52;42.01;95150.69;4933893;28;7146;-60
2023/11/23 08:50:17;;;;;;;;;;;;;;;25.51;42.03;95147.19;4932946;29;6984;-60
2023/11/23 08:52:44;;;;;;;;;;;;;;;25.49;41.23;95137.91;4935829;29;9161;-60
2023/11/23 08:55:41;;;;;;;;;;;;;;;25.49;41.32;95152.41;4957544;28;7304;-60
2023/11/23 08:58:36;;;;;;;;;;;;;;;25.47;42.01;95145.91;4959019;28;8766;-60
2023/11/23 09:01:37;;;;;;;;;;;;;;;25.49;41.75;95138.66;4972600;28;6992;-61
2023/11/23 09:04:34;;;;;;;;;;;;;;;25.48;41.79;95148.16;4954529;28;9078;-60
2023/11/23 09:07:16;;;;;;;;;;;;;;;25.48;42.32;95144.66;4968794;28;7246;-60
2023/11/23 09:09:56;;;;;;;;;;;;;;;25.46;42.15;95147.16;4961115;28;9325;-60
2023/11/23 09:12:35;;;;;;;;;;;;;;;25.43;42.46;95144.13;4970517;28;8622;-60
2023/11/23 09:15:13;;;;;;;;;;;;;;;25.44;42.32;95142.16;4975400;28;8895;-60
2023/11/23 09:17:39;;;;;;;;;;;;;;;25.43;42.68;95146.13;4968559;28;7089;-61
2023/11/23 09:20:08;;;;;;;;;;;;;;;25.40;42.44;95149.84;4972692;28;9025;-61
2023/11/23 09:23:12;;;;;;;;;;;;;;;25.43;42.83;95157.16;4976795;28;9130;-60
2023/11/23 09:25:39;;;;;;;;;;;;;;;25.39;42.09;95162.09;4918006;29;8763;-60
2023/11/23 09:28:05;;;;;;;;;;;;;;;25.36;42.37;95165.81;4917022;29;7002;-60
2023/11/23 09:31:02;;;;;;;;;;;;;;;25.39;42.98;95167.59;4897369;29;7177;-60
2023/11/23 09:33:36;;;;;;;;;;;;;;;25.39;41.98;95173.13;4882342;29;7268;-60
2023/11/23 09:36:48;;;;;;;;;;;;;;;25.40;42.76;95158.13;4917378;29;8844;-60
2023/11/23 09:39:34;;;;;;;;;;;;;;;25.37;42.52;95170.09;4907347;29;7533;-60
2023/11/23 09:42:35;;;;;;;;;;;;;;;25.37;42.14;95162.59;4888707;29;7220;-64
2023/11/23 09:45:12;;;;;;;;;;;;;;;25.38;43.10;95172.34;4883325;29;9106;-64
2023/11/23 09:47:48;;;;;;;;;;;;;;;25.38;42.22;95171.63;4886225;29;7253;-64
2023/11/23 09:50:41;;;;;;;;;;;;;;;25.38;42.42;95163.38;4890841;29;7177;-64
2023/11/23 09:53:18;;;;;;;;;;;;;;;25.38;42.54;95163.38;4878886;29;8808;-64
2023/11/23 09:55:55;;;;;;;;;;;;;;;25.41;42.77;95181.63;4897775;28;7327;-66
2023/11/23 09:58:57;;;;;;;;;;;;;;;25.46;42.16;95166.44;4939330;28;7235;-65
2023/11/23 10:01:54;;;;;;;;;;;;;;;25.47;42.31;95151.44;4921185;29;9336;-64
2023/11/23 10:04:21;;;;;;;;;;;;;;;25.45;41.78;95153.91;4906405;29;7511;-64
2023/11/23 10:07:26;;;;;;;;;;;;;;;25.46;42.21;95149.91;4921797;29;7529;-64
2023/11/23 10:09:56;;;;;;;;;;;;;;;25.45;41.98;95148.41;4929910;28;7172;-64
2023/11/23 10:12:26;;;;;;;;;;;;;;;25.44;42.06;95142.16;4982832;28;9272;-64
2023/11/23 10:15:06;;;;;;;;;;;;;;;25.44;41.88;95147.66;4983690;28;7021;-64
2023/11/23 10:17:33;;;;;;;;;;;;;;;25.43;41.51;95146.13;5015871;28;9019;-65
2023/11/23 10:20:24;;;;;;;;;;;;;;;25.44;42.12;95144.91;4995130;28;8549;-65
2023/11/23 10:23:12;;;;;;;;;;;;;;;25.42;41.78;95141.88;5030254;28;7072;-66
2023/11/23 10:26:04;;;;;;;;;;;;;;;25.51;41.57;95136.19;5039178;28;7223;-66
2023/11/23 10:28:51;;;;;;;;;;;;;;;25.50;41.00;95126.41;5047819;28;7304;-65
2023/11/23 10:31:37;;;;;;;;;;;;;;;25.49;42.12;95127.63;5061314;28;9098;-66
2023/11/23 10:34:21;;;;;;;;;;;;;;;25.52;41.22;95126.66;5055548;28;7187;-66
2023/11/23 10:36:51;;;;;;;;;;;;;;;25.56;41.32;95127.19;5042805;28;9055;-65
2023/11/23 10:39:27;;;;;;;;;;;;;;;25.56;41.30;95123.66;5027348;28;9467;-65
2023/11/23 10:41:54;;;;;;;;;;;;;;;25.51;42.12;95111.41;5047422;28;7358;-66
2023/11/23 10:44:32;;;;;;;;;;;;;;;25.49;41.95;95105.59;5059850;28;7102;-64
2023/11/23 10:47:03;;;;;;;;;;;;;;;25.50;41.72;95090.59;5060630;28;7468;-65
2023/11/23 10:49:34;;;;;;;;;;;;;;;25.47;41.62;95094.31;5042799;28;7306;-64
2023/11/23 10:52:10;;;;;;;;;;;;;;;25.49;41.18;95083.56;5046710;28;7420;-62
2023/11/23 10:54:49;;;;;;;;;;;;;;;25.45;41.86;95077.53;5044854;28;7281;-62
2023/11/23 10:57:20;;;;;;;;;;;;;;;25.46;41.59;95078.28;5045571;28;7125;-62
2023/11/23 10:59:50;;;;;;;;;;;;;;;25.45;41.61;95077.53;5025159;28;8747;-62
2023/11/23 11:02:36;;;;;;;;;;;;;;;25.45;41.24;95065.78;5040619;28;6997;-61
2023/11/23 11:05:23;;;;;;;;;;;;;;;25.45;41.96;95052.75;5038749;28;7248;-63
2023/11/23 11:08:16;;;;;;;;;;;;;;;25.44;41.45;95051.25;5030040;28;7561;-62
2023/11/23 11:10:55;;;;;;;;;;;;;;;25.45;41.46;95050.00;5056638;28;7310;-61
2023/11/23 11:13:58;;;;;;;;;;;;;;;25.49;42.23;95041.50;5049717;28;9539;-61
2023/11/23 11:16:39;;;;;;;;;;;;;;;25.49;41.57;95039.50;5026059;28;9112;-61
2023/11/23 11:23:06;;;;;;;;;;;;;;;25.47;42.31;95030.97;5048434;28;7232;-61
2023/11/23 11:26:30;;;;;;;;;;;;;;;25.49;42.27;95022.97;4969712;28;7647;-61
2023/11/23 11:29:16;;;;;;;;;;;;;;;25.55;42.68;95023.75;4925447;29;7131;-61
2023/11/23 11:31:58;;;;;;;;;;;;;;;25.57;42.64;95021.25;4918352;29;8442;-61
2023/11/23 11:34:59;;;;;;;;;;;;;;;25.60;42.64;95025.03;4940100;29;9360;-61
2023/11/23 11:37:36;;;;;;;;;;;;;;;25.60;41.62;95023.00;4918062;29;7301;-62
2023/11/23 11:40:33;;;;;;;;;;;;;;;25.60;42.61;95022.28;4930310;29;8652;-61
2023/11/23 11:43:02;;;;;;;;;;;;;;;25.60;42.28;95017.50;4876672;29;7580;-61
2023/11/23 11:45:42;;;;;;;;;;;;;;;25.59;42.21;95016.00;4891178;29;7285;-61
2023/11/23 11:48:09;;;;;;;;;;;;;;;25.57;42.57;95015.75;4893087;29;8856;-61
2023/11/23 11:50:35;;;;;;;;;;;;;;;25.55;42.07;94998.97;4893791;29;7079;-61
2023/11/23 11:53:01;;;;;;;;;;;;;;;25.56;42.59;94994.19;4886724;29;7252;-61
2023/11/23 11:55:49;;;;;;;;;;;;;;;25.51;42.92;94984.69;4895202;29;7028;-61
2023/11/23 11:58:15;;;;;;;;;;;;;;;25.56;42.15;94989.44;4887407;29;7593;-61
2023/11/23 12:00:44;;;;;;;;;;;;;;;25.56;42.31;94992.19;4960092;28;7261;-61
2023/11/23 12:03:10;;;;;;;;;;;;;;;25.54;42.65;94983.69;4953053;28;7562;-55
2023/11/23 12:05:42;;;;;;;;;;;;;;;25.55;42.36;94984.44;4965484;28;7937;-56
2023/11/23 12:08:09;;;;;;;;;;;;;;;25.61;42.32;94979.69;4967441;28;7345;-56
2023/11/23 12:10:44;;;;;;;;;;;;;;;25.63;41.69;94966.19;4954247;28;7047;-56
2023/11/23 12:13:14;;;;;;;;;;;;;;;25.66;42.27;94965.94;4959660;28;7063;-56
2023/11/23 12:15:44;;;;;;;;;;;;;;;25.64;41.67;94971.22;4964227;28;6899;-55
2023/11/23 12:18:14;;;;;;;;;;;;;;;25.68;41.37;94966.19;4967560;28;6899;-56
2023/11/23 12:20:41;;;;;;;;;;;;;;;25.68;41.93;94957.19;5055983;28;9069;-56
2023/11/23 12:23:09;;;;;;;;;;;;;;;25.69;41.36;94962.19;5043183;28;8898;-56
2023/11/23 12:25:38;;;;;;;;;;;;;;;25.70;41.41;94960.94;5045785;28;7447;-56
2023/11/23 12:28:29;;;;;;;;;;;;;;;25.73;40.87;94953.69;5041172;28;7163;-56
2023/11/23 12:31:01;;;;;;;;;;;;;;;25.74;40.54;94944.16;5049813;28;7346;-56
2023/11/23 12:34:07;;;;;;;;;;;;;;;25.75;40.39;94937.41;5050099;28;7282;-56
2023/11/23 12:36:36;;;;;;;;;;;;;;;25.73;40.69;94934.41;5036317;28;7265;-56
2023/11/23 12:39:13;;;;;;;;;;;;;;;25.72;40.56;94930.91;5066154;28;7316;-56
2023/11/23 12:42:13;;;;;;;;;;;;;;;25.77;40.64;94935.66;5037677;28;7232;-56
2023/11/23 12:44:51;;;;;;;;;;;;;;;25.79;41.24;94924.91;4994744;28;7359;-56
2023/11/23 12:47:43;;;;;;;;;;;;;;;25.80;40.39;94923.63;5017066;28;7344;-56
2023/11/23 12:51:01;;;;;;;;;;;;;;;25.81;41.06;94927.91;4982004;28;9463;-56
2023/11/23 12:53:46;;;;;;;;;;;;;;;25.83;41.21;94919.88;4944955;28;6973;-56
2023/11/23 12:56:15;;;;;;;;;;;;;;;25.84;40.38;94915.88;4946028;28;9368;-56
2023/11/23 12:59:08;;;;;;;;;;;;;;;25.86;41.45;94902.34;4941339;28;7235;-56
2023/11/23 13:01:55;;;;;;;;;;;;;;;25.87;40.69;94908.59;4938223;28;7222;-56
2023/11/23 13:04:29;;;;;;;;;;;;;;;25.91;41.12;94898.06;4954758;28;6989;-56
2023/11/23 13:07:14;;;;;;;;;;;;;;;25.92;40.55;94899.59;4939100;28;10063;-56
2023/11/23 13:10:19;;;;;;;;;;;;;;;25.97;41.23;94898.81;4943901;28;7148;-56
2023/11/23 13:13:04;;;;;;;;;;;;;;;25.96;41.41;94889.81;4920593;29;7282;-56
2023/11/23 13:16:01;;;;;;;;;;;;;;;26.00;41.44;94887.56;4920051;29;7225;-56
2023/11/23 13:18:38;;;;;;;;;;;;;;;26.00;40.84;94879.31;4884025;29;7082;-56
2023/11/23 13:21:17;;;;;;;;;;;;;;;26.05;41.41;94880.56;4869537;29;7229;-56
2023/11/23 13:23:52;;;;;;;;;;;;;;;26.10;40.68;94888.84;4845621;29;8973;-64
2023/11/23 13:26:31;;;;;;;;;;;;;;;26.08;40.87;94869.28;4882924;29;8177;-64
2023/11/23 13:29:01;;;;;;;;;;;;;;;26.12;40.57;94869.78;4887133;29;7161;-64
2023/11/23 13:32:05;;;;;;;;;;;;;;;26.16;40.90;94875.78;4916964;29;7254;-64
2023/11/23 13:34:56;;;;;;;;;;;;;;;26.22;40.65;94877.81;4919106;29;7272;-64
2023/11/23 13:37:38;;;;;;;;;;;;;;;26.25;40.77;94871.28;4930290;28;9159;-65
2023/11/23 13:40:06;;;;;;;;;;;;;;;26.28;40.53;94876.53;4919088;29;7005;-65
2023/11/23 13:42:44;;;;;;;;;;;;;;;26.31;40.54;94877.53;4919819;29;7117;-65
2023/11/23 13:45:13;;;;;;;;;;;;;;;26.35;40.86;94878.03;4932223;28;7006;-64
2023/11/23 13:47:40;;;;;;;;;;;;;;;26.37;40.83;94876.28;4943371;28;6996;-65
2023/11/23 13:50:21;;;;;;;;;;;;;;;26.40;40.40;94882.78;4961499;28;9202;-65
2023/11/23 13:53:06;;;;;;;;;;;;;;;26.44;40.43;94877.78;4957778;28;7257;-64
2023/11/23 13:55:35;;;;;;;;;;;;;;;26.46;40.55;94864.22;5011644;28;8722;-64
2023/11/23 13:58:15;;;;;;;;;;;;;;;26.45;40.92;94868.22;5045396;28;6987;-65
2023/11/23 14:00:43;;;;;;;;;;;;;;;26.49;40.50;94863.94;5043347;28;7243;-65
2023/11/23 14:07:22;;;;;;;;;;;;;;;26.53;41.07;94852.69;5000221;28;8673;-66
2023/11/23 14:09:56;;;;;;;;;;;;;;;26.52;40.88;94846.41;4955253;28;9169;-66
2023/11/23 14:12:35;;;;;;;;;;;;;;;26.56;41.10;94846.13;4977145;28;7713;-65
2023/11/23 14:15:33;;;;;;;;;;;;;;;26.57;40.88;94836.59;4974688;28;9089;-65